Kirsehir, Turkey
Current Conditions -  °F | °C
As of 9:50 AM on Monday 24 Nov 2014 (Local Time) from LTAZ Reporting Station
Broken Clouds Broken Clouds  
Wind Chill: 30°   Ceiling: 3600
Heat Index: 34°   Visibility: 6mi
Dew Point: 28°   Wind: 5mph
Humidity: 81%   Direction: 220°SW
Pressure: 30.15"   Gusts: NA
Location:  39.15°N, 34.16°E
Report Text: LTAZ 240650Z 22004KT 9999 BKN036 01/M02 Q1021
Loading
Personal Weather Stations






























Interactive Weather Map New forecast layout! Learn more

10-Day Weather Forecast

Advertisements
Track Severe Weather on mobile